Time,TemperatureF,DewpointF,PressureIn,WindDirection,WindDirectionDegrees,WindSpeedMPH,WindSpeedGustMPH,Humidity,HourlyPrecipIn,Conditions,Clouds,dailyrainin,SoftwareType,DateUTC
2013-01-12 00:01:00,17.8,10.2,30.08,WNW,292,0.0,0.0,72,0.00,,,0.00,WUHU21623XXSP,2013-01-12 08:01:00,
2013-01-12 00:06:00,17.2,9.4,30.08,NNW,337,0.0,0.0,71,0.00,,,0.00,WUHU21623XXSP,2013-01-12 08:06:00,
2013-01-12 00:12:00,16.9,9.1,30.08,NNW,337,0.0,0.0,71,0.00,,,0.00,WUHU21623XXSP,2013-01-12 08:12:00,
2013-01-12 00:17:00,16.7,8.9,30.07,NE,45,0.0,0.0,71,0.00,,,0.00,WUHU21623XXSP,2013-01-12 08:17:00,
2013-01-12 00:25:00,16.3,8.5,30.07,NNW,337,0.9,0.9,71,0.00,,,0.00,WUHU21623XXSP,2013-01-12 08:25:00,
2013-01-12 00:30:00,16.3,8.5,30.07,NNW,337,2.5,2.5,71,0.00,,,0.00,WUHU21623XXSP,2013-01-12 08:30:00,
2013-01-12 00:35:00,16.3,8.5,30.07,North,0,0.0,2.5,71,0.00,,,0.00,WUHU21623XXSP,2013-01-12 08:35:00,
2013-01-12 00:40:00,16.2,8.3,30.07,North,0,1.3,1.3,71,0.00,,,0.00,WUHU21623XXSP,2013-01-12 08:40:00,
2013-01-12 00:45:00,15.8,8.2,30.08,NW,315,0.0,1.3,71,0.00,,,0.00,WUHU21623XXSP,2013-01-12 08:45:00,
2013-01-12 00:50:00,15.8,8.0,30.07,NW,315,0.0,0.0,71,0.00,,,0.00,WUHU21623XXSP,2013-01-12 08:50:00,
2013-01-12 00:58:00,15.6,8.1,30.08,WNW,292,1.1,1.1,72,0.00,,,0.00,WUHU21623XXSP,2013-01-12 08:58:00,
2013-01-12 01:03:00,15.6,8.1,30.08,WNW,292,1.1,1.1,72,0.00,,,0.00,WUHU21623XXSP,2013-01-12 09:03:00,
2013-01-12 01:16:00,14.2,6.7,30.07,WNW,292,0.0,0.0,71,0.00,,,0.00,WUHU21623XXSP,2013-01-12 09:16:00,
2013-01-12 01:21:00,14.2,6.5,30.07,North,0,0.0,0.0,71,0.00,,,0.00,WUHU21623XXSP,2013-01-12 09:21:00,
2013-01-12 01:26:00,13.8,6.2,30.07,NE,45,0.0,0.0,71,0.00,,,0.00,WUHU21623XXSP,2013-01-12 09:26:00,
2013-01-12 01:42:00,12.6,4.9,30.07,NE,45,0.0,0.0,71,0.00,,,0.00,WUHU21623XXSP,2013-01-12 09:42:00,
2013-01-12 01:48:00,12.2,4.3,30.07,NE,45,0.0,0.0,70,0.00,,,0.00,WUHU21623XXSP,2013-01-12 09:48:00,
2013-01-12 01:58:00,11.3,3.7,30.07,SSE,157,0.0,0.0,71,0.00,,,0.00,WUHU21623XXSP,2013-01-12 09:58:00,
2013-01-12 02:03:00,11.3,3.7,30.07,SSE,157,0.0,0.0,71,0.00,,,0.00,WUHU21623XXSP,2013-01-12 10:03:00,
2013-01-12 02:18:00,9.7,1.8,30.08,South,180,0.0,0.0,70,0.00,,,0.00,WUHU21623XXSP,2013-01-12 10:18:00,
2013-01-12 02:46:00,7.0,-0.3,30.08,NNE,22,0.0,0.0,71,0.00,,,0.00,WUHU21623XXSP,2013-01-12 10:46:00,
2013-01-12 02:58:00,6.4,-1.0,30.08,NNE,22,0.0,0.0,71,0.00,,,0.00,WUHU21623XXSP,2013-01-12 10:58:00,
2013-01-12 03:03:00,6.4,-1.0,30.08,NNE,22,0.0,0.0,71,0.00,,,0.00,WUHU21623XXSP,2013-01-12 11:03:00,
2013-01-12 03:12:00,5.7,-1.4,30.08,NNW,337,0.0,0.0,72,0.00,,,0.00,WUHU21623XXSP,2013-01-12 11:12:00,
2013-01-12 03:44:00,5.0,-2.2,30.08,SE,135,0.0,0.0,73,0.00,,,0.00,WUHU21623XXSP,2013-01-12 11:44:00,
2013-01-12 03:49:00,4.8,-2.1,30.08,SE,135,0.0,0.0,73,0.00,,,0.00,WUHU21623XXSP,2013-01-12 11:49:00,
2013-01-12 03:58:00,4.6,-2.2,30.08,ESE,112,0.0,0.0,73,0.00,,,0.00,WUHU21623XXSP,2013-01-12 11:58:00,
2013-01-12 04:03:00,4.6,-2.2,30.08,ESE,112,0.0,0.0,73,0.00,,,0.00,WUHU21623XXSP,2013-01-12 12:03:00,
2013-01-12 04:08:00,4.3,-2.6,30.08,ESE,112,0.0,0.0,73,0.00,,,0.00,WUHU21623XXSP,2013-01-12 12:08:00,
2013-01-12 04:23:00,3.6,-3.2,30.08,NNW,337,0.0,0.0,73,0.00,,,0.00,WUHU21623XXSP,2013-01-12 12:23:00,
2013-01-12 04:32:00,3.0,-3.7,30.08,ENE,67,0.0,0.0,73,0.00,,,0.00,WUHU21623XXSP,2013-01-12 12:32:00,
2013-01-12 04:42:00,2.8,-3.9,30.08,NW,315,0.0,0.0,73,0.00,,,0.00,WUHU21623XXSP,2013-01-12 12:42:00,
2013-01-12 04:48:00,2.5,-4.3,30.08,SE,135,0.0,0.0,73,0.00,,,0.00,WUHU21623XXSP,2013-01-12 12:48:00,
2013-01-12 04:58:00,2.1,-4.6,30.09,East,90,0.0,0.0,73,0.00,,,0.00,WUHU21623XXSP,2013-01-12 12:58:00,
2013-01-12 05:03:00,1.9,-4.5,30.09,East,90,0.0,0.0,74,0.00,,,0.00,WUHU21623XXSP,2013-01-12 13:03:00,
2013-01-12 05:12:00,1.8,-4.7,30.09,NE,45,0.0,0.0,74,0.00,,,0.00,WUHU21623XXSP,2013-01-12 13:12:00,
2013-01-12 05:25:00,1.2,-5.3,30.09,NNE,22,0.0,0.0,74,0.00,,,0.00,WUHU21623XXSP,2013-01-12 13:25:00,
2013-01-12 05:33:00,1.0,-5.4,30.09,SSW,202,0.0,0.0,74,0.00,,,0.00,WUHU21623XXSP,2013-01-12 13:33:00,
2013-01-12 05:58:00,0.3,-5.8,30.09,ESE,112,0.0,0.0,75,0.00,,,0.00,WUHU21623XXSP,2013-01-12 13:58:00,
2013-01-12 06:03:00,0.1,-6.0,30.10,SSE,157,0.0,0.0,75,0.00,,,0.00,WUHU21623XXSP,2013-01-12 14:03:00,
2013-01-12 06:18:00,-0.2,-6.1,30.10,ESE,112,0.0,0.0,76,0.00,,,0.00,WUHU21623XXSP,2013-01-12 14:18:00,
2013-01-12 06:23:00,-0.6,-6.4,30.10,SSE,157,0.0,0.0,76,0.00,,,0.00,WUHU21623XXSP,2013-01-12 14:23:00,
2013-01-12 06:31:00,-0.6,-6.4,30.10,SE,135,0.0,0.0,76,0.00,,,0.00,WUHU21623XXSP,2013-01-12 14:31:00,
2013-01-12 06:40:00,-0.8,-6.3,30.10,ESE,112,0.0,0.0,77,0.00,,,0.00,WUHU21623XXSP,2013-01-12 14:40:00,
2013-01-12 06:46:00,-0.8,-6.6,30.11,NNW,337,0.0,0.0,77,0.00,,,0.00,WUHU21623XXSP,2013-01-12 14:46:00,
2013-01-12 06:59:00,-1.1,-6.6,30.11,WNW,292,0.0,0.0,77,0.00,,,0.00,WUHU21623XXSP,2013-01-12 14:59:00,
2013-01-12 07:04:00,-1.1,-6.6,30.11,WNW,292,0.0,0.0,77,0.00,,,0.00,WUHU21623XXSP,2013-01-12 15:04:00,
2013-01-12 07:14:00,-1.3,-6.8,30.12,NE,45,0.0,0.0,77,0.00,,,0.00,WUHU21623XXSP,2013-01-12 15:14:00,
2013-01-12 07:25:00,-1.3,-6.8,30.12,West,270,0.0,0.0,77,0.00,,,0.00,WUHU21623XXSP,2013-01-12 15:25:00,
2013-01-12 07:31:00,-1.5,-7.0,30.12,SSE,157,0.0,0.0,77,0.00,,,0.00,WUHU21623XXSP,2013-01-12 15:31:00,
2013-01-12 07:42:00,-1.5,-7.0,30.12,SSE,157,0.0,0.0,77,0.00,,,0.00,WUHU21623XXSP,2013-01-12 15:42:00,
2013-01-12 07:47:00,-1.5,-7.0,30.13,South,180,0.0,0.0,77,0.00,,,0.00,WUHU21623XXSP,2013-01-12 15:47:00,
2013-01-12 07:52:00,-1.5,-7.0,30.13,SW,225,0.0,0.0,77,0.00,,,0.00,WUHU21623XXSP,2013-01-12 15:52:00,
2013-01-12 07:57:00,-1.1,-6.4,30.13,SW,225,0.0,0.0,78,0.00,,,0.00,WUHU21623XXSP,2013-01-12 15:57:00,
2013-01-12 08:02:00,-0.8,-6.4,30.13,SSW,202,0.0,0.0,78,0.00,,,0.00,WUHU21623XXSP,2013-01-12 16:02:00,
2013-01-12 08:07:00,-0.8,-5.7,30.13,SW,225,0.0,0.0,79,0.00,,,0.00,WUHU21623XXSP,2013-01-12 16:07:00,
2013-01-12 08:16:00,0.1,-4.9,30.13,SW,225,0.0,0.0,79,0.00,,,0.00,WUHU21623XXSP,2013-01-12 16:16:00,
2013-01-12 08:33:00,1.2,-4.2,30.14,SSW,202,0.0,0.0,78,0.00,,,0.00,WUHU21623XXSP,2013-01-12 16:33:00,
2013-01-12 08:38:00,1.6,-3.8,30.14,South,180,0.0,0.0,78,0.00,,,0.00,WUHU21623XXSP,2013-01-12 16:38:00,
2013-01-12 08:43:00,1.9,-3.6,30.13,South,180,0.0,0.0,78,0.00,,,0.00,WUHU21623XXSP,2013-01-12 16:43:00,
2013-01-12 08:50:00,2.3,-3.1,30.13,SSE,157,0.0,0.0,78,0.00,,,0.00,WUHU21623XXSP,2013-01-12 16:50:00,
2013-01-12 08:55:00,2.5,-2.9,30.14,South,180,0.0,0.0,78,0.00,,,0.00,WUHU21623XXSP,2013-01-12 16:55:00,
2013-01-12 09:00:00,3.0,-2.4,30.13,SSW,202,0.0,0.0,78,0.00,,,0.00,WUHU21623XXSP,2013-01-12 17:00:00,
2013-01-12 09:07:00,3.7,-1.7,30.13,SW,225,0.0,0.0,78,0.00,,,0.00,WUHU21623XXSP,2013-01-12 17:07:00,
2013-01-12 09:13:00,3.9,-1.5,30.13,West,270,0.0,0.0,78,0.00,,,0.00,WUHU21623XXSP,2013-01-12 17:13:00,
2013-01-12 09:18:00,4.1,-1.3,30.13,West,270,0.0,0.0,78,0.00,,,0.00,WUHU21623XXSP,2013-01-12 17:18:00,
2013-01-12 09:23:00,4.8,-0.6,30.13,West,270,0.0,0.0,78,0.00,,,0.00,WUHU21623XXSP,2013-01-12 17:23:00,
2013-01-12 09:28:00,5.9,0.4,30.14,SSE,157,0.0,0.0,79,0.00,,,0.00,WUHU21623XXSP,2013-01-12 17:28:00,
2013-01-12 09:33:00,6.1,0.9,30.13,South,180,0.0,0.0,79,0.00,,,0.00,WUHU21623XXSP,2013-01-12 17:33:00,
2013-01-12 09:38:00,7.0,1.8,30.13,SSE,157,0.0,0.0,79,0.00,,,0.00,WUHU21623XXSP,2013-01-12 17:38:00,
2013-01-12 09:43:00,7.5,2.4,30.13,South,180,0.0,0.0,79,0.00,,,0.00,WUHU21623XXSP,2013-01-12 17:43:00,
2013-01-12 09:48:00,9.1,3.9,30.13,SSW,202,0.0,0.0,79,0.00,,,0.00,WUHU21623XXSP,2013-01-12 17:48:00,
2013-01-12 09:53:00,10.0,4.7,30.13,NNE,22,0.0,0.0,79,0.00,,,0.00,WUHU21623XXSP,2013-01-12 17:53:00,
2013-01-12 09:58:00,10.6,5.3,30.13,NNE,22,0.0,0.0,79,0.00,,,0.00,WUHU21623XXSP,2013-01-12 17:58:00,
2013-01-12 10:03:00,11.7,6.3,30.13,East,90,0.0,0.0,79,0.00,,,0.00,WUHU21623XXSP,2013-01-12 18:03:00,
2013-01-12 10:08:00,12.4,7.1,30.13,NNW,337,0.0,0.0,79,0.00,,,0.00,WUHU21623XXSP,2013-01-12 18:08:00,
2013-01-12 10:13:00,12.9,7.1,30.13,South,180,0.0,0.0,78,0.00,,,0.00,WUHU21623XXSP,2013-01-12 18:13:00,
2013-01-12 10:18:00,13.6,8.0,30.13,West,270,0.0,0.0,78,0.00,,,0.00,WUHU21623XXSP,2013-01-12 18:18:00,
2013-01-12 10:23:00,14.7,9.1,30.13,East,90,0.0,0.0,78,0.00,,,0.00,WUHU21623XXSP,2013-01-12 18:23:00,
2013-01-12 10:28:00,15.4,9.8,30.13,SE,135,0.0,0.0,78,0.00,,,0.00,WUHU21623XXSP,2013-01-12 18:28:00,
2013-01-12 10:35:00,16.9,10.8,30.12,ENE,67,0.0,0.0,77,0.00,,,0.00,WUHU21623XXSP,2013-01-12 18:35:00,
2013-01-12 10:42:00,17.8,11.7,30.12,SSE,157,0.0,0.0,77,0.00,,,0.00,WUHU21623XXSP,2013-01-12 18:42:00,
2013-01-12 10:47:00,18.7,12.2,30.12,NNW,337,0.0,0.0,77,0.00,,,0.00,WUHU21623XXSP,2013-01-12 18:47:00,
2013-01-12 10:57:00,19.9,13.8,30.12,NNW,337,0.0,0.0,77,0.00,,,0.00,WUHU21623XXSP,2013-01-12 18:57:00,
2013-01-12 11:02:00,20.5,14.0,30.12,SW,225,0.0,0.0,76,0.00,,,0.00,WUHU21623XXSP,2013-01-12 19:02:00,
2013-01-12 11:07:00,21.2,14.8,30.11,NNE,22,0.0,0.0,76,0.00,,,0.00,WUHU21623XXSP,2013-01-12 19:07:00,
2013-01-12 11:12:00,22.1,15.0,30.11,WNW,292,0.0,0.0,74,0.00,,,0.00,WUHU21623XXSP,2013-01-12 19:12:00,
2013-01-12 11:18:00,23.0,15.9,30.11,East,90,0.0,0.0,74,0.00,,,0.00,WUHU21623XXSP,2013-01-12 19:18:00,
2013-01-12 11:25:00,24.1,17.0,30.10,NNW,337,0.0,0.0,74,0.00,,,0.00,WUHU21623XXSP,2013-01-12 19:25:00,
2013-01-12 11:30:00,24.4,17.3,30.10,SSE,157,0.0,0.0,74,0.00,,,0.00,WUHU21623XXSP,2013-01-12 19:30:00,
2013-01-12 11:35:00,26.1,17.7,30.10,South,180,0.0,0.0,73,0.00,,,0.00,WUHU21623XXSP,2013-01-12 19:35:00,
2013-01-12 11:48:00,28.2,20.1,30.09,WNW,292,0.0,0.0,71,0.00,,,0.00,WUHU21623XXSP,2013-01-12 19:48:00,
2013-01-12 11:57:00,29.1,20.2,30.09,NW,315,0.0,0.0,69,0.00,,,0.00,WUHU21623XXSP,2013-01-12 19:57:00,
2013-01-12 12:02:00,29.7,20.4,30.09,West,270,0.0,0.0,68,0.00,,,0.00,WUHU21623XXSP,2013-01-12 20:02:00,
2013-01-12 12:07:00,30.0,20.7,30.09,NW,315,0.0,0.0,68,0.00,,,0.00,WUHU21623XXSP,2013-01-12 20:07:00,
2013-01-12 12:14:00,30.4,20.3,30.09,SE,135,0.0,0.0,66,0.00,,,0.00,WUHU21623XXSP,2013-01-12 20:14:00,
2013-01-12 12:22:00,30.7,19.9,30.08,South,180,0.0,0.0,64,0.00,,,0.00,WUHU21623XXSP,2013-01-12 20:22:00,
2013-01-12 12:27:00,31.3,20.3,30.08,WSW,247,0.0,0.0,64,0.00,,,0.00,WUHU21623XXSP,2013-01-12 20:27:00,
2013-01-12 12:33:00,31.6,20.8,30.08,WNW,292,0.0,0.0,64,0.00,,,0.00,WUHU21623XXSP,2013-01-12 20:33:00,
2013-01-12 12:38:00,31.8,21.0,30.07,North,0,0.0,0.0,64,0.00,,,0.00,WUHU21623XXSP,2013-01-12 20:38:00,
2013-01-12 12:44:00,31.6,19.8,30.07,SSE,157,0.0,0.0,61,0.00,,,0.00,WUHU21623XXSP,2013-01-12 20:44:00,
2013-01-12 12:50:00,31.3,19.0,30.07,West,270,0.0,0.0,60,0.00,,,0.00,WUHU21623XXSP,2013-01-12 20:50:00,
2013-01-12 12:55:00,31.1,19.2,30.07,NE,45,0.0,0.0,61,0.00,,,0.00,WUHU21623XXSP,2013-01-12 20:55:00,
2013-01-12 13:00:00,31.3,19.4,30.07,NNE,22,0.0,0.0,61,0.00,,,0.00,WUHU21623XXSP,2013-01-12 21:00:00,
2013-01-12 13:05:00,31.6,19.4,30.06,WSW,247,0.0,0.0,61,0.00,,,0.00,WUHU21623XXSP,2013-01-12 21:05:00,
2013-01-12 13:14:00,32.2,20.3,30.06,North,0,0.0,0.0,61,0.00,,,0.00,WUHU21623XXSP,2013-01-12 21:14:00,
2013-01-12 13:20:00,32.5,20.6,30.06,NE,45,0.0,0.0,61,0.00,,,0.00,WUHU21623XXSP,2013-01-12 21:20:00,
2013-01-12 13:25:00,32.7,20.4,30.06,South,180,0.0,0.0,61,0.00,,,0.00,WUHU21623XXSP,2013-01-12 21:25:00,
2013-01-12 13:31:00,33.3,20.9,30.06,SW,225,0.0,0.0,60,0.00,,,0.00,WUHU21623XXSP,2013-01-12 21:31:00,
2013-01-12 13:36:00,33.4,20.6,30.06,WSW,247,0.0,0.0,59,0.00,,,0.00,WUHU21623XXSP,2013-01-12 21:36:00,
2013-01-12 13:42:00,33.6,21.2,30.06,West,270,0.0,0.0,60,0.00,,,0.00,WUHU21623XXSP,2013-01-12 21:42:00,
2013-01-12 13:47:00,34.3,21.2,30.06,West,270,0.0,0.0,60,0.00,,,0.00,WUHU21623XXSP,2013-01-12 21:47:00,
2013-01-12 13:52:00,35.4,23.4,30.06,West,270,0.0,0.0,61,0.00,,,0.00,WUHU21623XXSP,2013-01-12 21:52:00,
2013-01-12 13:57:00,36.0,23.1,30.06,WSW,247,0.0,0.0,59,0.00,,,0.00,WUHU21623XXSP,2013-01-12 21:57:00,
2013-01-12 14:05:00,36.0,22.2,30.06,WSW,247,0.0,0.0,57,0.00,,,0.00,WUHU21623XXSP,2013-01-12 22:05:00,
2013-01-12 14:10:00,35.8,21.6,30.06,ESE,112,0.0,0.0,56,0.00,,,0.00,WUHU21623XXSP,2013-01-12 22:10:00,
2013-01-12 14:15:00,35.4,20.8,30.06,South,180,0.0,0.0,55,0.00,,,0.00,WUHU21623XXSP,2013-01-12 22:15:00,
2013-01-12 14:20:00,34.9,20.3,30.06,SW,225,3.4,3.4,55,0.00,,,0.00,WUHU21623XXSP,2013-01-12 22:20:00,
2013-01-12 14:25:00,33.6,18.6,30.06,West,270,0.0,3.4,54,0.00,,,0.00,WUHU21623XXSP,2013-01-12 22:25:00,
2013-01-12 14:30:00,32.9,18.0,30.06,WNW,292,0.0,0.0,54,0.00,,,0.00,WUHU21623XXSP,2013-01-12 22:30:00,
2013-01-12 14:35:00,32.5,17.7,30.06,South,180,0.0,0.0,54,0.00,,,0.00,WUHU21623XXSP,2013-01-12 22:35:00,
2013-01-12 14:40:00,31.8,17.0,30.06,West,270,1.6,1.6,54,0.00,,,0.00,WUHU21623XXSP,2013-01-12 22:40:00,
2013-01-12 14:46:00,31.6,16.8,30.06,SSW,202,2.0,2.0,54,0.00,,,0.00,WUHU21623XXSP,2013-01-12 22:46:00,
2013-01-12 14:52:00,30.2,15.5,30.06,SSE,157,0.0,2.0,54,0.00,,,0.00,WUHU21623XXSP,2013-01-12 22:52:00,
2013-01-12 14:57:00,29.1,14.8,30.06,SSW,202,3.4,3.4,54,0.00,,,0.00,WUHU21623XXSP,2013-01-12 22:57:00,
2013-01-12 15:02:00,28.8,14.2,30.06,SSW,202,2.2,3.4,54,0.00,,,0.00,WUHU21623XXSP,2013-01-12 23:02:00,
2013-01-12 15:07:00,27.7,13.7,30.06,SSW,202,2.7,2.7,54,0.00,,,0.00,WUHU21623XXSP,2013-01-12 23:07:00,
2013-01-12 15:14:00,27.0,12.8,30.06,ESE,112,1.1,2.7,55,0.00,,,0.00,WUHU21623XXSP,2013-01-12 23:14:00,
2013-01-12 15:19:00,26.4,12.3,30.06,SSE,157,0.0,1.1,55,0.00,,,0.00,WUHU21623XXSP,2013-01-12 23:19:00,
2013-01-12 15:25:00,25.7,12.1,30.06,South,180,0.0,2.9,56,0.00,,,0.00,WUHU21623XXSP,2013-01-12 23:25:00,
2013-01-12 15:31:00,25.2,11.6,30.06,SSW,202,3.6,3.6,56,0.00,,,0.00,WUHU21623XXSP,2013-01-12 23:31:00,
2013-01-12 15:36:00,25.0,11.4,30.06,SE,135,0.0,3.6,56,0.00,,,0.00,WUHU21623XXSP,2013-01-12 23:36:00,
2013-01-12 15:41:00,24.6,11.1,30.06,SE,135,0.0,0.0,56,0.00,,,0.00,WUHU21623XXSP,2013-01-12 23:41:00,
2013-01-12 15:46:00,24.4,11.3,30.06,ESE,112,0.0,0.0,57,0.00,,,0.00,WUHU21623XXSP,2013-01-12 23:46:00,
2013-01-12 15:51:00,24.3,11.1,30.06,SE,135,2.7,2.7,57,0.00,,,0.00,WUHU21623XXSP,2013-01-12 23:51:00,
2013-01-12 15:56:00,23.7,10.8,30.06,South,180,0.9,2.7,58,0.00,,,0.00,WUHU21623XXSP,2013-01-12 23:56:00,
2013-01-12 16:01:00,23.7,11.0,30.06,South,180,2.9,2.9,58,0.00,,,0.00,WUHU21623XXSP,2013-01-13 00:01:00,
2013-01-12 16:06:00,23.5,10.8,30.06,ESE,112,0.0,2.9,58,0.00,,,0.00,WUHU21623XXSP,2013-01-13 00:06:00,
2013-01-12 16:12:00,23.5,10.8,30.07,WSW,247,3.1,3.1,58,0.00,,,0.00,WUHU21623XXSP,2013-01-13 00:12:00,
2013-01-12 16:17:00,23.4,10.7,30.06,WNW,292,2.9,3.1,58,0.00,,,0.00,WUHU21623XXSP,2013-01-13 00:17:00,
2013-01-12 16:24:00,23.2,10.9,30.07,WNW,292,3.1,3.1,59,0.00,,,0.00,WUHU21623XXSP,2013-01-13 00:24:00,
2013-01-12 16:29:00,23.2,10.9,30.07,WNW,292,3.4,3.4,59,0.00,,,0.00,WUHU21623XXSP,2013-01-13 00:29:00,
2013-01-12 16:35:00,23.0,10.3,30.07,WSW,247,0.0,3.4,58,0.00,,,0.00,WUHU21623XXSP,2013-01-13 00:35:00,
2013-01-12 16:40:00,22.8,10.1,30.08,NNW,337,1.1,3.1,59,0.00,,,0.00,WUHU21623XXSP,2013-01-13 00:40:00,
2013-01-12 16:45:00,22.8,10.5,30.07,SSE,157,0.0,1.1,59,0.00,,,0.00,WUHU21623XXSP,2013-01-13 00:45:00,
2013-01-12 16:50:00,22.6,10.5,30.08,SW,225,0.0,0.0,59,0.00,,,0.00,WUHU21623XXSP,2013-01-13 00:50:00,
2013-01-12 16:55:00,22.6,10.4,30.08,SE,135,0.0,0.0,59,0.00,,,0.00,WUHU21623XXSP,2013-01-13 00:55:00,
2013-01-12 17:03:00,22.3,10.1,30.09,South,180,0.0,0.0,59,0.00,,,0.00,WUHU21623XXSP,2013-01-13 01:03:00,
2013-01-12 17:08:00,21.9,9.9,30.08,ESE,112,0.0,0.0,59,0.00,,,0.00,WUHU21623XXSP,2013-01-13 01:08:00,
2013-01-12 17:14:00,21.6,9.4,30.09,WNW,292,0.0,0.0,59,0.00,,,0.00,WUHU21623XXSP,2013-01-13 01:14:00,
2013-01-12 17:20:00,21.4,9.2,30.09,West,270,0.0,0.0,59,0.00,,,0.00,WUHU21623XXSP,2013-01-13 01:20:00,
2013-01-12 17:25:00,21.0,8.9,30.09,WNW,292,1.6,1.6,59,0.00,,,0.00,WUHU21623XXSP,2013-01-13 01:25:00,
2013-01-12 17:31:00,20.8,8.7,30.09,WNW,292,0.0,1.6,59,0.00,,,0.00,WUHU21623XXSP,2013-01-13 01:31:00,
2013-01-12 17:37:00,20.5,8.4,30.09,SSE,157,0.0,0.0,59,0.00,,,0.00,WUHU21623XXSP,2013-01-13 01:37:00,
2013-01-12 17:42:00,19.9,8.4,30.09,South,180,0.0,0.0,59,0.00,,,0.00,WUHU21623XXSP,2013-01-13 01:42:00,
2013-01-12 17:47:00,19.6,7.6,30.09,West,270,0.0,0.0,59,0.00,,,0.00,WUHU21623XXSP,2013-01-13 01:47:00,
2013-01-12 17:59:00,19.0,7.0,30.09,SE,135,0.0,0.0,59,0.00,,,0.00,WUHU21623XXSP,2013-01-13 01:59:00,
2013-01-12 18:05:00,18.5,6.5,30.10,SE,135,0.0,0.0,59,0.00,,,0.00,WUHU21623XXSP,2013-01-13 02:05:00,
2013-01-12 18:10:00,18.3,6.5,30.10,ESE,112,0.0,0.0,59,0.00,,,0.00,WUHU21623XXSP,2013-01-13 02:10:00,
2013-01-12 18:16:00,18.1,6.6,30.10,SE,135,0.0,0.0,60,0.00,,,0.00,WUHU21623XXSP,2013-01-13 02:16:00,
2013-01-12 18:21:00,18.0,6.4,30.10,ESE,112,0.0,0.0,60,0.00,,,0.00,WUHU21623XXSP,2013-01-13 02:21:00,
2013-01-12 18:26:00,17.8,6.2,30.10,ESE,112,0.0,0.0,60,0.00,,,0.00,WUHU21623XXSP,2013-01-13 02:26:00,
2013-01-12 18:32:00,17.4,5.9,30.10,ESE,112,0.0,0.0,60,0.00,,,0.00,WUHU21623XXSP,2013-01-13 02:32:00,
2013-01-12 18:37:00,17.2,5.7,30.10,SE,135,0.0,0.0,60,0.00,,,0.00,WUHU21623XXSP,2013-01-13 02:37:00,
2013-01-12 18:48:00,16.9,5.7,30.10,SE,135,0.0,0.0,61,0.00,,,0.00,WUHU21623XXSP,2013-01-13 02:48:00,
2013-01-12 18:53:00,16.9,5.4,30.10,SE,135,0.0,0.0,60,0.00,,,0.00,WUHU21623XXSP,2013-01-13 02:53:00,
2013-01-12 18:58:00,16.7,5.2,30.10,SE,135,0.0,0.0,60,0.00,,,0.00,WUHU21623XXSP,2013-01-13 02:58:00,
2013-01-12 19:03:00,16.3,5.0,30.10,SE,135,0.0,0.0,61,0.00,,,0.00,WUHU21623XXSP,2013-01-13 03:03:00,
2013-01-12 19:08:00,16.3,5.2,30.10,SE,135,0.0,0.0,61,0.00,,,0.00,WUHU21623XXSP,2013-01-13 03:08:00,
2013-01-12 19:13:00,16.2,5.0,30.10,NE,45,0.0,0.0,61,0.00,,,0.00,WUHU21623XXSP,2013-01-13 03:13:00,
2013-01-12 19:18:00,16.0,4.8,30.10,NE,45,0.0,0.0,61,0.00,,,0.00,WUHU21623XXSP,2013-01-13 03:18:00,
2013-01-12 19:23:00,15.6,4.6,30.10,East,90,0.0,0.0,61,0.00,,,0.00,WUHU21623XXSP,2013-01-13 03:23:00,
2013-01-12 19:33:00,15.1,4.0,30.10,SE,135,0.0,0.0,61,0.00,,,0.00,WUHU21623XXSP,2013-01-13 03:33:00,
2013-01-12 19:39:00,14.7,3.6,30.10,East,90,0.0,0.0,61,0.00,,,0.00,WUHU21623XXSP,2013-01-13 03:39:00,
2013-01-12 19:44:00,14.5,3.8,30.10,ESE,112,0.0,0.0,62,0.00,,,0.00,WUHU21623XXSP,2013-01-13 03:44:00,
2013-01-12 19:59:00,13.8,2.8,30.10,WNW,292,0.0,0.0,61,0.00,,,0.00,WUHU21623XXSP,2013-01-13 03:59:00,
2013-01-12 20:04:00,13.8,3.2,30.10,NW,315,0.0,0.0,62,0.00,,,0.00,WUHU21623XXSP,2013-01-13 04:04:00,
2013-01-12 20:11:00,13.3,2.6,30.11,NW,315,0.0,0.0,62,0.00,,,0.00,WUHU21623XXSP,2013-01-13 04:11:00,
2013-01-12 20:16:00,13.3,2.6,30.10,NW,315,0.0,0.0,62,0.00,,,0.00,WUHU21623XXSP,2013-01-13 04:16:00,
2013-01-12 20:22:00,12.9,2.3,30.11,WNW,292,0.0,0.0,62,0.00,,,0.00,WUHU21623XXSP,2013-01-13 04:22:00,
2013-01-12 20:27:00,12.7,2.1,30.11,WNW,292,0.0,0.0,62,0.00,,,0.00,WUHU21623XXSP,2013-01-13 04:27:00,
2013-01-12 20:33:00,12.4,1.7,30.11,WNW,292,0.0,0.0,62,0.00,,,0.00,WUHU21623XXSP,2013-01-13 04:33:00,
2013-01-12 20:38:00,12.0,1.4,30.11,SSE,157,0.0,0.0,62,0.00,,,0.00,WUHU21623XXSP,2013-01-13 04:38:00,
2013-01-12 20:43:00,11.8,1.2,30.11,SSE,157,0.0,0.0,62,0.00,,,0.00,WUHU21623XXSP,2013-01-13 04:43:00,
2013-01-12 20:48:00,11.5,0.9,30.11,SSE,157,0.0,0.0,62,0.00,,,0.00,WUHU21623XXSP,2013-01-13 04:48:00,
2013-01-12 20:53:00,11.3,0.7,30.12,SSE,157,0.0,0.0,62,0.00,,,0.00,WUHU21623XXSP,2013-01-13 04:53:00,
2013-01-12 20:59:00,10.9,0.4,30.12,WNW,292,0.0,0.0,62,0.00,,,0.00,WUHU21623XXSP,2013-01-13 04:59:00,
2013-01-12 21:00:00,10.9,0.4,30.12,WNW,292,0.0,0.0,62,0.00,,,0.00,WUHU21623XXSP,2013-01-13 05:00:00,
2013-01-12 21:01:00,10.8,0.4,30.12,NW,315,0.0,0.0,62,0.00,,,0.00,WUHU21623XXSP,2013-01-13 05:01:00,
2013-01-12 21:02:00,10.8,0.4,30.12,NW,315,0.0,0.0,62,0.00,,,0.00,WUHU21623XXSP,2013-01-13 05:02:00,
2013-01-12 21:03:00,10.6,0.2,30.12,NW,315,0.0,0.0,62,0.00,,,0.00,WUHU21623XXSP,2013-01-13 05:03:00,
2013-01-12 21:09:00,10.6,0.1,30.12,NNW,337,0.0,0.0,62,0.00,,,0.00,WUHU21623XXSP,2013-01-13 05:09:00,
2013-01-12 21:14:00,10.2,0.0,30.12,NNW,337,0.0,0.0,63,0.00,,,0.00,WUHU21623XXSP,2013-01-13 05:14:00,
2013-01-12 21:19:00,10.0,0.0,30.12,NNW,337,0.0,0.0,63,0.00,,,0.00,WUHU21623XXSP,2013-01-13 05:19:00,
2013-01-12 21:24:00,9.7,-0.5,30.12,SSE,157,0.0,0.0,63,0.00,,,0.00,WUHU21623XXSP,2013-01-13 05:24:00,
2013-01-12 21:29:00,9.7,-0.5,30.12,SSE,157,0.0,0.0,63,0.00,,,0.00,WUHU21623XXSP,2013-01-13 05:29:00,
2013-01-12 21:34:00,9.5,-0.7,30.12,SSE,157,0.0,0.0,64,0.00,,,0.00,WUHU21623XXSP,2013-01-13 05:34:00,
2013-01-12 21:39:00,9.3,-0.9,30.12,SSE,157,0.0,0.0,63,0.00,,,0.00,WUHU21623XXSP,2013-01-13 05:39:00,
2013-01-12 21:44:00,9.3,-0.9,30.12,SSE,157,0.0,0.0,63,0.00,,,0.00,WUHU21623XXSP,2013-01-13 05:44:00,
2013-01-12 21:49:00,9.0,-1.0,30.12,ENE,67,0.0,0.0,63,0.00,,,0.00,WUHU21623XXSP,2013-01-13 05:49:00,
2013-01-12 21:54:00,9.0,-1.2,30.12,East,90,0.0,0.0,63,0.00,,,0.00,WUHU21623XXSP,2013-01-13 05:54:00,
2013-01-12 21:59:00,8.6,-1.2,30.12,ENE,67,0.0,0.0,64,0.00,,,0.00,WUHU21623XXSP,2013-01-13 05:59:00,
2013-01-12 22:04:00,8.2,-1.4,30.12,ENE,67,0.0,0.0,64,0.00,,,0.00,WUHU21623XXSP,2013-01-13 06:04:00,
2013-01-12 22:09:00,8.1,-1.7,30.12,ENE,67,0.0,0.0,64,0.00,,,0.00,WUHU21623XXSP,2013-01-13 06:09:00,
2013-01-12 22:14:00,7.9,-1.9,30.12,ESE,112,0.0,0.0,64,0.00,,,0.00,WUHU21623XXSP,2013-01-13 06:14:00,
2013-01-12 22:20:00,7.7,-1.7,30.12,NE,45,0.0,0.0,65,0.00,,,0.00,WUHU21623XXSP,2013-01-13 06:20:00,
2013-01-12 22:25:00,7.5,-1.9,30.12,ESE,112,0.0,0.0,65,0.00,,,0.00,WUHU21623XXSP,2013-01-13 06:25:00,
2013-01-12 22:31:00,7.5,-1.9,30.12,SE,135,0.0,0.0,65,0.00,,,0.00,WUHU21623XXSP,2013-01-13 06:31:00,
2013-01-12 22:36:00,7.3,-2.1,30.12,SW,225,0.0,0.0,65,0.00,,,0.00,WUHU21623XXSP,2013-01-13 06:36:00,
2013-01-12 22:41:00,7.3,-2.1,30.12,WSW,247,0.0,0.0,65,0.00,,,0.00,WUHU21623XXSP,2013-01-13 06:41:00,
2013-01-12 22:46:00,7.2,-2.2,30.12,WSW,247,0.0,0.0,65,0.00,,,0.00,WUHU21623XXSP,2013-01-13 06:46:00,
2013-01-12 22:51:00,7.0,-2.4,30.13,WSW,247,0.0,0.0,65,0.00,,,0.00,WUHU21623XXSP,2013-01-13 06:51:00,
2013-01-12 22:56:00,7.0,-2.4,30.12,WSW,247,0.0,0.0,65,0.00,,,0.00,WUHU21623XXSP,2013-01-13 06:56:00,
2013-01-12 23:01:00,6.6,-2.7,30.13,WSW,247,0.0,0.0,65,0.00,,,0.00,WUHU21623XXSP,2013-01-13 07:01:00,
2013-01-12 23:07:00,6.4,-2.6,30.13,WSW,247,0.0,0.0,66,0.00,,,0.00,WUHU21623XXSP,2013-01-13 07:07:00,
2013-01-12 23:12:00,6.4,-2.6,30.12,WSW,247,0.0,0.0,66,0.00,,,0.00,WUHU21623XXSP,2013-01-13 07:12:00,
2013-01-12 23:17:00,6.1,-3.0,30.12,SSW,202,0.0,0.0,66,0.00,,,0.00,WUHU21623XXSP,2013-01-13 07:17:00,
2013-01-12 23:22:00,5.9,-3.1,30.12,South,180,0.0,0.0,66,0.00,,,0.00,WUHU21623XXSP,2013-01-13 07:22:00,
2013-01-12 23:28:00,5.5,-3.5,30.12,SSW,202,0.0,0.0,66,0.00,,,0.00,WUHU21623XXSP,2013-01-13 07:28:00,
2013-01-12 23:33:00,5.4,-3.5,30.13,SE,135,0.0,0.0,65,0.00,,,0.00,WUHU21623XXSP,2013-01-13 07:33:00,
2013-01-12 23:39:00,5.2,-3.9,30.12,ENE,67,0.0,0.0,66,0.00,,,0.00,WUHU21623XXSP,2013-01-13 07:39:00,
2013-01-12 23:46:00,5.0,-4.0,30.12,SSE,157,0.0,0.0,66,0.00,,,0.00,WUHU21623XXSP,2013-01-13 07:46:00,
2013-01-12 23:51:00,4.8,-4.2,30.12,SE,135,0.0,0.0,66,0.00,,,0.00,WUHU21623XXSP,2013-01-13 07:51:00,
2013-01-12 23:56:00,4.8,-4.2,30.12,ENE,67,0.0,0.0,66,0.00,,,0.00,WUHU21623XXSP,2013-01-13 07:56:00,